Аэропорт: Сургут. Сургут

ICAO: USRR

METAR:
2021-10-23 01:00:00
USRR 230100Z 16005MPS 3700 -SHSN BKN004 BKN014CB 01/00 Q0992 R25/250250 TEMPO 1000 SHSNRA BR BKN002 BKN015CB RMK OBST OBSC QFE738
METAR:
2021-10-22 22:55:00
TAF USRR 222255Z 2300/2324 19005G12MPS 6000 -RA OVC006 TEMPO 2300/2309 1000 SHSNRA BR BKN002 OVC010CB FM230900 25007G14MPS 9999 FEW008 BKN016CB TEMPO 2309/2321 5000 -SHRA SCT005 BKN016CB